sensor_id;sensor_type;location;lat;lon;timestamp;temperature;humidity
30371;DHT22;17164;48.590;11.410;2023-07-16T00:02:04;22.30;99.90
30371;DHT22;17164;48.590;11.410;2023-07-16T00:04:33;22.20;99.90
30371;DHT22;17164;48.590;11.410;2023-07-16T00:07:01;22.00;99.90
30371;DHT22;17164;48.590;11.410;2023-07-16T00:09:27;21.90;99.90
30371;DHT22;17164;48.590;11.410;2023-07-16T00:11:53;21.80;99.90
30371;DHT22;17164;48.590;11.410;2023-07-16T00:14:19;21.70;99.90
30371;DHT22;17164;48.590;11.410;2023-07-16T00:16:44;21.60;99.90
30371;DHT22;17164;48.590;11.410;2023-07-16T00:19:11;21.50;99.90
30371;DHT22;17164;48.590;11.410;2023-07-16T00:21:38;21.40;99.90
30371;DHT22;17164;48.590;11.410;2023-07-16T00:24:04;21.40;99.90
30371;DHT22;17164;48.590;11.410;2023-07-16T00:26:30;21.30;99.90
30371;DHT22;17164;48.590;11.410;2023-07-16T00:28:56;21.30;99.90
30371;DHT22;17164;48.590;11.410;2023-07-16T00:31:21;21.30;99.90
30371;DHT22;17164;48.590;11.410;2023-07-16T00:33:47;21.30;99.90
30371;DHT22;17164;48.590;11.410;2023-07-16T00:36:13;21.30;99.90
30371;DHT22;17164;48.590;11.410;2023-07-16T00:38:38;21.30;99.90
30371;DHT22;17164;48.590;11.410;2023-07-16T00:41:05;21.30;99.90
30371;DHT22;17164;48.590;11.410;2023-07-16T00:43:31;21.30;99.90
30371;DHT22;17164;48.590;11.410;2023-07-16T00:45:57;21.20;99.90
30371;DHT22;17164;48.590;11.410;2023-07-16T00:48:23;21.20;99.90
30371;DHT22;17164;48.590;11.410;2023-07-16T00:50:51;21.10;99.90
30371;DHT22;17164;48.590;11.410;2023-07-16T00:53:18;21.10;99.90
30371;DHT22;17164;48.590;11.410;2023-07-16T00:55:44;21.00;99.90
30371;DHT22;17164;48.590;11.410;2023-07-16T00:58:10;21.00;99.90
30371;DHT22;17164;48.590;11.410;2023-07-16T01:00:37;21.00;99.90
30371;DHT22;17164;48.590;11.410;2023-07-16T01:03:05;20.90;99.90
30371;DHT22;17164;48.590;11.410;2023-07-16T01:08:14;20.80;99.90
30371;DHT22;17164;48.590;11.410;2023-07-16T01:10:42;20.80;99.90
30371;DHT22;17164;48.590;11.410;2023-07-16T01:13:07;20.80;99.90
30371;DHT22;17164;48.590;11.410;2023-07-16T01:15:33;20.80;99.90
30371;DHT22;17164;48.590;11.410;2023-07-16T01:17:59;20.80;99.90
30371;DHT22;17164;48.590;11.410;2023-07-16T01:20:24;20.90;99.90
30371;DHT22;17164;48.590;11.410;2023-07-16T01:28:50;20.80;99.90
30371;DHT22;17164;48.590;11.410;2023-07-16T01:31:19;20.80;99.90
30371;DHT22;17164;48.590;11.410;2023-07-16T01:33:47;20.80;99.90
30371;DHT22;17164;48.590;11.410;2023-07-16T01:36:13;20.80;99.90
30371;DHT22;17164;48.590;11.410;2023-07-16T01:38:39;20.80;99.90
30371;DHT22;17164;48.590;11.410;2023-07-16T01:41:05;20.80;99.90
30371;DHT22;17164;48.590;11.410;2023-07-16T01:43:30;20.80;99.90
30371;DHT22;17164;48.590;11.410;2023-07-16T01:45:56;20.80;99.90
30371;DHT22;17164;48.590;11.410;2023-07-16T01:48:34;20.80;99.90
30371;DHT22;17164;48.590;11.410;2023-07-16T01:51:01;20.80;99.90
30371;DHT22;17164;48.590;11.410;2023-07-16T01:53:26;20.80;99.90
30371;DHT22;17164;48.590;11.410;2023-07-16T01:55:52;20.80;99.90
30371;DHT22;17164;48.590;11.410;2023-07-16T01:58:18;20.80;99.90
30371;DHT22;17164;48.590;11.410;2023-07-16T02:00:44;20.80;99.90
30371;DHT22;17164;48.590;11.410;2023-07-16T02:03:09;20.80;99.90
30371;DHT22;17164;48.590;11.410;2023-07-16T02:05:35;20.70;99.90
30371;DHT22;17164;48.590;11.410;2023-07-16T02:08:00;20.70;99.90
30371;DHT22;17164;48.590;11.410;2023-07-16T02:10:26;20.60;99.90
30371;DHT22;17164;48.590;11.410;2023-07-16T02:12:51;20.60;99.90
30371;DHT22;17164;48.590;11.410;2023-07-16T02:15:17;20.50;99.90
30371;DHT22;17164;48.590;11.410;2023-07-16T02:17:44;20.40;99.90
30371;DHT22;17164;48.590;11.410;2023-07-16T02:20:10;20.40;99.90
30371;DHT22;17164;48.590;11.410;2023-07-16T02:22:36;20.30;99.90
30371;DHT22;17164;48.590;11.410;2023-07-16T02:25:02;20.20;99.90
30371;DHT22;17164;48.590;11.410;2023-07-16T02:27:28;20.20;99.90
30371;DHT22;17164;48.590;11.410;2023-07-16T02:29:54;20.10;99.90
30371;DHT22;17164;48.590;11.410;2023-07-16T02:32:20;20.00;99.90
30371;DHT22;17164;48.590;11.410;2023-07-16T02:34:46;20.00;99.90
30371;DHT22;17164;48.590;11.410;2023-07-16T02:37:11;19.90;99.90
30371;DHT22;17164;48.590;11.410;2023-07-16T02:39:38;19.90;99.90
30371;DHT22;17164;48.590;11.410;2023-07-16T02:42:04;19.90;99.90
30371;DHT22;17164;48.590;11.410;2023-07-16T02:44:30;19.90;99.90
30371;DHT22;17164;48.590;11.410;2023-07-16T02:46:56;19.90;99.90
30371;DHT22;17164;48.590;11.410;2023-07-16T02:49:21;19.80;99.90
30371;DHT22;17164;48.590;11.410;2023-07-16T02:51:47;19.80;99.90
30371;DHT22;17164;48.590;11.410;2023-07-16T02:54:12;19.80;99.90
30371;DHT22;17164;48.590;11.410;2023-07-16T02:56:38;19.80;99.90
30371;DHT22;17164;48.590;11.410;2023-07-16T02:59:04;19.80;99.90
30371;DHT22;17164;48.590;11.410;2023-07-16T03:01:29;19.70;99.90
30371;DHT22;17164;48.590;11.410;2023-07-16T03:03:55;19.70;99.90
30371;DHT22;17164;48.590;11.410;2023-07-16T03:06:21;19.70;99.90
30371;DHT22;17164;48.590;11.410;2023-07-16T03:08:46;19.70;99.90
30371;DHT22;17164;48.590;11.410;2023-07-16T03:11:12;19.70;99.90
30371;DHT22;17164;48.590;11.410;2023-07-16T03:13:38;19.70;99.90
30371;DHT22;17164;48.590;11.410;2023-07-16T03:16:04;19.70;99.90
30371;DHT22;17164;48.590;11.410;2023-07-16T03:18:30;19.70;99.90
30371;DHT22;17164;48.590;11.410;2023-07-16T03:20:57;19.70;99.90
30371;DHT22;17164;48.590;11.410;2023-07-16T03:23:23;19.70;99.90
30371;DHT22;17164;48.590;11.410;2023-07-16T03:25:49;19.70;99.90
30371;DHT22;17164;48.590;11.410;2023-07-16T03:28:14;19.70;99.90
30371;DHT22;17164;48.590;11.410;2023-07-16T03:30:44;19.70;99.90
30371;DHT22;17164;48.590;11.410;2023-07-16T03:33:10;19.70;99.90
30371;DHT22;17164;48.590;11.410;2023-07-16T03:35:35;19.70;99.90
30371;DHT22;17164;48.590;11.410;2023-07-16T03:38:01;19.70;99.90
30371;DHT22;17164;48.590;11.410;2023-07-16T03:40:27;19.70;99.90
30371;DHT22;17164;48.590;11.410;2023-07-16T03:42:52;19.60;99.90
30371;DHT22;17164;48.590;11.410;2023-07-16T03:45:18;19.60;99.90
30371;DHT22;17164;48.590;11.410;2023-07-16T03:47:44;19.60;99.90
30371;DHT22;17164;48.590;11.410;2023-07-16T03:50:10;19.70;99.90
30371;DHT22;17164;48.590;11.410;2023-07-16T03:52:35;19.60;99.90
30371;DHT22;17164;48.590;11.410;2023-07-16T03:55:01;19.70;99.90
30371;DHT22;17164;48.590;11.410;2023-07-16T03:57:30;19.70;99.90
30371;DHT22;17164;48.590;11.410;2023-07-16T03:59:56;19.70;99.90
30371;DHT22;17164;48.590;11.410;2023-07-16T04:02:22;19.60;99.90
30371;DHT22;17164;48.590;11.410;2023-07-16T04:04:47;19.60;99.90
30371;DHT22;17164;48.590;11.410;2023-07-16T04:07:13;19.60;99.90
30371;DHT22;17164;48.590;11.410;2023-07-16T04:09:39;19.60;99.90
30371;DHT22;17164;48.590;11.410;2023-07-16T04:12:06;19.60;99.90
30371;DHT22;17164;48.590;11.410;2023-07-16T04:14:32;19.60;99.90
30371;DHT22;17164;48.590;11.410;2023-07-16T04:16:57;19.60;99.90
30371;DHT22;17164;48.590;11.410;2023-07-16T04:19:23;19.60;99.90
30371;DHT22;17164;48.590;11.410;2023-07-16T04:21:49;19.50;99.90
30371;DHT22;17164;48.590;11.410;2023-07-16T04:24:14;19.50;99.90
30371;DHT22;17164;48.590;11.410;2023-07-16T04:26:40;19.40;99.90
30371;DHT22;17164;48.590;11.410;2023-07-16T04:29:06;19.30;99.90
30371;DHT22;17164;48.590;11.410;2023-07-16T04:31:31;19.20;99.90
30371;DHT22;17164;48.590;11.410;2023-07-16T04:33:57;19.10;99.90
30371;DHT22;17164;48.590;11.410;2023-07-16T04:36:23;19.10;99.90
30371;DHT22;17164;48.590;11.410;2023-07-16T04:38:48;19.00;99.90
30371;DHT22;17164;48.590;11.410;2023-07-16T04:41:14;18.90;99.90
30371;DHT22;17164;48.590;11.410;2023-07-16T04:43:40;18.80;99.90
30371;DHT22;17164;48.590;11.410;2023-07-16T04:46:05;18.70;99.90
30371;DHT22;17164;48.590;11.410;2023-07-16T04:48:31;18.70;99.90
30371;DHT22;17164;48.590;11.410;2023-07-16T04:50:56;18.70;99.90
30371;DHT22;17164;48.590;11.410;2023-07-16T04:53:22;18.70;99.90
30371;DHT22;17164;48.590;11.410;2023-07-16T04:55:48;18.70;99.90
30371;DHT22;17164;48.590;11.410;2023-07-16T04:58:15;18.70;99.90
30371;DHT22;17164;48.590;11.410;2023-07-16T05:00:41;18.70;99.90
30371;DHT22;17164;48.590;11.410;2023-07-16T05:03:06;18.70;99.90
30371;DHT22;17164;48.590;11.410;2023-07-16T05:05:32;18.80;99.90
30371;DHT22;17164;48.590;11.410;2023-07-16T05:07:58;18.80;99.90
30371;DHT22;17164;48.590;11.410;2023-07-16T05:10:24;18.80;99.90
30371;DHT22;17164;48.590;11.410;2023-07-16T05:12:49;18.90;99.90
30371;DHT22;17164;48.590;11.410;2023-07-16T05:15:15;18.90;99.90
30371;DHT22;17164;48.590;11.410;2023-07-16T05:17:41;18.90;99.90
30371;DHT22;17164;48.590;11.410;2023-07-16T05:20:07;18.90;99.90
30371;DHT22;17164;48.590;11.410;2023-07-16T05:22:34;19.00;99.90
30371;DHT22;17164;48.590;11.410;2023-07-16T05:25:00;19.00;99.90
30371;DHT22;17164;48.590;11.410;2023-07-16T05:27:26;19.00;99.90
30371;DHT22;17164;48.590;11.410;2023-07-16T05:29:52;19.10;99.90
30371;DHT22;17164;48.590;11.410;2023-07-16T05:32:17;19.10;99.90
30371;DHT22;17164;48.590;11.410;2023-07-16T05:34:43;19.10;99.90
30371;DHT22;17164;48.590;11.410;2023-07-16T05:37:09;19.10;99.90
30371;DHT22;17164;48.590;11.410;2023-07-16T05:39:34;19.10;99.90
30371;DHT22;17164;48.590;11.410;2023-07-16T05:42:00;19.10;99.90
30371;DHT22;17164;48.590;11.410;2023-07-16T05:44:28;19.20;99.90
30371;DHT22;17164;48.590;11.410;2023-07-16T05:46:53;19.20;99.90
30371;DHT22;17164;48.590;11.410;2023-07-16T05:49:19;19.20;99.90
30371;DHT22;17164;48.590;11.410;2023-07-16T05:51:45;19.20;99.90
30371;DHT22;17164;48.590;11.410;2023-07-16T05:54:10;19.20;99.90
30371;DHT22;17164;48.590;11.410;2023-07-16T05:56:36;19.30;99.90
30371;DHT22;17164;48.590;11.410;2023-07-16T05:59:01;19.30;99.90
30371;DHT22;17164;48.590;11.410;2023-07-16T06:01:27;19.30;99.90
30371;DHT22;17164;48.590;11.410;2023-07-16T06:03:53;19.40;99.90
30371;DHT22;17164;48.590;11.410;2023-07-16T06:06:19;19.40;99.90
30371;DHT22;17164;48.590;11.410;2023-07-16T06:08:45;19.50;99.90
30371;DHT22;17164;48.590;11.410;2023-07-16T06:11:12;19.50;99.90
30371;DHT22;17164;48.590;11.410;2023-07-16T06:13:38;19.50;99.90
30371;DHT22;17164;48.590;11.410;2023-07-16T06:16:03;19.50;99.90
30371;DHT22;17164;48.590;11.410;2023-07-16T06:18:29;19.40;99.90
30371;DHT22;17164;48.590;11.410;2023-07-16T06:20:55;19.40;99.90
30371;DHT22;17164;48.590;11.410;2023-07-16T06:23:20;19.40;99.90
30371;DHT22;17164;48.590;11.410;2023-07-16T06:25:46;19.40;99.90
30371;DHT22;17164;48.590;11.410;2023-07-16T06:28:14;19.50;99.90
30371;DHT22;17164;48.590;11.410;2023-07-16T06:30:40;19.50;99.90
30371;DHT22;17164;48.590;11.410;2023-07-16T06:33:06;19.50;99.90
30371;DHT22;17164;48.590;11.410;2023-07-16T06:35:32;19.50;99.90
30371;DHT22;17164;48.590;11.410;2023-07-16T06:37:58;19.60;99.90
30371;DHT22;17164;48.590;11.410;2023-07-16T06:40:24;19.60;99.90
30371;DHT22;17164;48.590;11.410;2023-07-16T06:42:50;19.70;99.90
30371;DHT22;17164;48.590;11.410;2023-07-16T06:45:17;19.80;99.90
30371;DHT22;17164;48.590;11.410;2023-07-16T06:47:43;19.80;99.90
30371;DHT22;17164;48.590;11.410;2023-07-16T06:50:09;19.90;99.90
30371;DHT22;17164;48.590;11.410;2023-07-16T06:52:34;20.00;99.90
30371;DHT22;17164;48.590;11.410;2023-07-16T06:55:00;20.10;99.90
30371;DHT22;17164;48.590;11.410;2023-07-16T06:57:26;20.20;99.90
30371;DHT22;17164;48.590;11.410;2023-07-16T06:59:51;20.20;99.90
30371;DHT22;17164;48.590;11.410;2023-07-16T07:02:18;20.30;99.90
30371;DHT22;17164;48.590;11.410;2023-07-16T07:04:44;20.30;99.90
30371;DHT22;17164;48.590;11.410;2023-07-16T07:07:10;20.40;99.90
30371;DHT22;17164;48.590;11.410;2023-07-16T07:09:35;20.30;99.90
30371;DHT22;17164;48.590;11.410;2023-07-16T07:12:01;20.30;99.90
30371;DHT22;17164;48.590;11.410;2023-07-16T07:14:27;20.30;99.90
30371;DHT22;17164;48.590;11.410;2023-07-16T07:16:52;20.30;99.90
30371;DHT22;17164;48.590;11.410;2023-07-16T07:19:18;20.30;99.90
30371;DHT22;17164;48.590;11.410;2023-07-16T07:21:44;20.20;99.90
30371;DHT22;17164;48.590;11.410;2023-07-16T07:24:09;20.20;99.90
30371;DHT22;17164;48.590;11.410;2023-07-16T07:26:35;20.20;99.90
30371;DHT22;17164;48.590;11.410;2023-07-16T07:29:00;20.10;99.90
30371;DHT22;17164;48.590;11.410;2023-07-16T07:31:26;20.00;99.90
30371;DHT22;17164;48.590;11.410;2023-07-16T07:33:52;20.00;99.90
30371;DHT22;17164;48.590;11.410;2023-07-16T07:36:19;19.80;99.90
30371;DHT22;17164;48.590;11.410;2023-07-16T07:38:45;19.70;99.90
30371;DHT22;17164;48.590;11.410;2023-07-16T07:41:11;19.50;99.90
30371;DHT22;17164;48.590;11.410;2023-07-16T07:43:36;19.30;99.90
30371;DHT22;17164;48.590;11.410;2023-07-16T07:46:02;19.20;99.90
30371;DHT22;17164;48.590;11.410;2023-07-16T07:48:28;19.00;99.90
30371;DHT22;17164;48.590;11.410;2023-07-16T07:50:53;18.90;99.90
30371;DHT22;17164;48.590;11.410;2023-07-16T07:53:19;18.90;99.90
30371;DHT22;17164;48.590;11.410;2023-07-16T07:55:45;18.80;99.90
30371;DHT22;17164;48.590;11.410;2023-07-16T07:58:11;18.80;99.90
30371;DHT22;17164;48.590;11.410;2023-07-16T08:00:37;18.70;99.90
30371;DHT22;17164;48.590;11.410;2023-07-16T08:03:02;18.70;99.90
30371;DHT22;17164;48.590;11.410;2023-07-16T08:05:28;18.70;99.90
30371;DHT22;17164;48.590;11.410;2023-07-16T08:07:54;18.60;99.90
30371;DHT22;17164;48.590;11.410;2023-07-16T08:10:21;18.60;99.90
30371;DHT22;17164;48.590;11.410;2023-07-16T08:12:47;18.50;99.90
30371;DHT22;17164;48.590;11.410;2023-07-16T08:15:13;18.50;99.90
30371;DHT22;17164;48.590;11.410;2023-07-16T08:17:42;18.60;99.90
30371;DHT22;17164;48.590;11.410;2023-07-16T08:20:08;18.60;99.90
30371;DHT22;17164;48.590;11.410;2023-07-16T08:22:34;18.60;99.90
30371;DHT22;17164;48.590;11.410;2023-07-16T08:25:00;18.70;99.90
30371;DHT22;17164;48.590;11.410;2023-07-16T08:27:25;18.90;99.90
30371;DHT22;17164;48.590;11.410;2023-07-16T08:29:51;19.10;99.90
30371;DHT22;17164;48.590;11.410;2023-07-16T08:32:16;19.20;99.90
30371;DHT22;17164;48.590;11.410;2023-07-16T08:34:42;19.40;99.90
30371;DHT22;17164;48.590;11.410;2023-07-16T08:37:08;19.50;99.90
30371;DHT22;17164;48.590;11.410;2023-07-16T08:39:33;19.70;99.90
30371;DHT22;17164;48.590;11.410;2023-07-16T08:41:59;20.00;99.90
30371;DHT22;17164;48.590;11.410;2023-07-16T08:44:25;20.10;99.90
30371;DHT22;17164;48.590;11.410;2023-07-16T08:46:52;20.30;99.90
30371;DHT22;17164;48.590;11.410;2023-07-16T08:49:18;20.40;99.90
30371;DHT22;17164;48.590;11.410;2023-07-16T08:51:48;20.40;99.90
30371;DHT22;17164;48.590;11.410;2023-07-16T08:54:15;20.50;99.90
30371;DHT22;17164;48.590;11.410;2023-07-16T08:56:43;20.50;99.90
30371;DHT22;17164;48.590;11.410;2023-07-16T08:59:10;20.50;99.90
30371;DHT22;17164;48.590;11.410;2023-07-16T09:01:37;20.50;99.90
30371;DHT22;17164;48.590;11.410;2023-07-16T09:04:03;20.50;99.90
30371;DHT22;17164;48.590;11.410;2023-07-16T09:06:28;20.50;99.90
30371;DHT22;17164;48.590;11.410;2023-07-16T09:08:54;20.50;99.90
30371;DHT22;17164;48.590;11.410;2023-07-16T09:11:20;20.50;99.90
30371;DHT22;17164;48.590;11.410;2023-07-16T09:13:50;20.50;99.90
30371;DHT22;17164;48.590;11.410;2023-07-16T09:16:19;20.50;99.90
30371;DHT22;17164;48.590;11.410;2023-07-16T09:18:46;20.50;99.90
30371;DHT22;17164;48.590;11.410;2023-07-16T09:21:12;20.40;99.90
30371;DHT22;17164;48.590;11.410;2023-07-16T09:23:39;20.40;99.90
30371;DHT22;17164;48.590;11.410;2023-07-16T09:26:04;20.40;99.90
30371;DHT22;17164;48.590;11.410;2023-07-16T09:28:31;20.30;99.90
30371;DHT22;17164;48.590;11.410;2023-07-16T09:31:06;20.30;99.90
30371;DHT22;17164;48.590;11.410;2023-07-16T09:33:33;20.40;99.90
30371;DHT22;17164;48.590;11.410;2023-07-16T09:35:58;20.50;99.90
30371;DHT22;17164;48.590;11.410;2023-07-16T09:38:24;20.70;99.90
30371;DHT22;17164;48.590;11.410;2023-07-16T09:40:52;20.90;99.90
30371;DHT22;17164;48.590;11.410;2023-07-16T09:43:18;21.20;99.90
30371;DHT22;17164;48.590;11.410;2023-07-16T09:45:44;21.40;99.90
30371;DHT22;17164;48.590;11.410;2023-07-16T09:48:10;21.50;99.90
30371;DHT22;17164;48.590;11.410;2023-07-16T09:50:36;21.80;99.90
30371;DHT22;17164;48.590;11.410;2023-07-16T09:53:06;22.00;99.90
30371;DHT22;17164;48.590;11.410;2023-07-16T09:55:34;22.30;99.90
30371;DHT22;17164;48.590;11.410;2023-07-16T09:58:03;22.60;99.90
30371;DHT22;17164;48.590;11.410;2023-07-16T10:00:32;22.90;99.90
30371;DHT22;17164;48.590;11.410;2023-07-16T10:02:58;23.20;99.90
30371;DHT22;17164;48.590;11.410;2023-07-16T10:05:27;23.20;99.90
30371;DHT22;17164;48.590;11.410;2023-07-16T10:07:57;23.20;99.90
30371;DHT22;17164;48.590;11.410;2023-07-16T10:10:40;23.20;99.90
30371;DHT22;17164;48.590;11.410;2023-07-16T10:13:06;23.10;99.90
30371;DHT22;17164;48.590;11.410;2023-07-16T10:15:32;23.00;99.90
30371;DHT22;17164;48.590;11.410;2023-07-16T10:17:58;23.00;99.90
30371;DHT22;17164;48.590;11.410;2023-07-16T10:20:31;22.90;99.90
30371;DHT22;17164;48.590;11.410;2023-07-16T10:22:58;22.80;99.90
30371;DHT22;17164;48.590;11.410;2023-07-16T10:25:26;22.80;99.90
30371;DHT22;17164;48.590;11.410;2023-07-16T10:27:53;22.80;99.90
30371;DHT22;17164;48.590;11.410;2023-07-16T10:30:20;22.90;99.90
30371;DHT22;17164;48.590;11.410;2023-07-16T10:32:46;22.90;99.90
30371;DHT22;17164;48.590;11.410;2023-07-16T10:35:12;23.00;99.90
30371;DHT22;17164;48.590;11.410;2023-07-16T10:37:39;23.10;99.90
30371;DHT22;17164;48.590;11.410;2023-07-16T10:40:10;23.40;99.90
30371;DHT22;17164;48.590;11.410;2023-07-16T10:42:36;23.80;99.90
30371;DHT22;17164;48.590;11.410;2023-07-16T10:45:03;24.20;99.90
30371;DHT22;17164;48.590;11.410;2023-07-16T10:47:34;24.40;99.90
30371;DHT22;17164;48.590;11.410;2023-07-16T10:50:02;24.60;99.90
30371;DHT22;17164;48.590;11.410;2023-07-16T10:52:28;24.50;99.90
30371;DHT22;17164;48.590;11.410;2023-07-16T10:54:54;24.40;99.90
30371;DHT22;17164;48.590;11.410;2023-07-16T10:57:21;24.40;99.90
30371;DHT22;17164;48.590;11.410;2023-07-16T10:59:47;24.30;99.90
30371;DHT22;17164;48.590;11.410;2023-07-16T11:02:15;24.30;99.90
30371;DHT22;17164;48.590;11.410;2023-07-16T11:04:43;24.10;99.90
30371;DHT22;17164;48.590;11.410;2023-07-16T11:07:11;24.00;99.90
30371;DHT22;17164;48.590;11.410;2023-07-16T11:09:48;24.00;99.90
30371;DHT22;17164;48.590;11.410;2023-07-16T11:12:18;24.00;99.90
30371;DHT22;17164;48.590;11.410;2023-07-16T11:14:48;24.00;99.90
30371;DHT22;17164;48.590;11.410;2023-07-16T11:17:15;24.20;99.90
30371;DHT22;17164;48.590;11.410;2023-07-16T11:19:44;24.30;99.90
30371;DHT22;17164;48.590;11.410;2023-07-16T11:22:10;24.50;99.90
30371;DHT22;17164;48.590;11.410;2023-07-16T11:24:40;24.70;99.90
30371;DHT22;17164;48.590;11.410;2023-07-16T11:27:13;24.80;99.90
30371;DHT22;17164;48.590;11.410;2023-07-16T11:29:39;25.00;99.90
30371;DHT22;17164;48.590;11.410;2023-07-16T11:32:07;25.10;99.90
30371;DHT22;17164;48.590;11.410;2023-07-16T11:34:33;25.20;99.90
30371;DHT22;17164;48.590;11.410;2023-07-16T11:37:11;25.30;99.90
30371;DHT22;17164;48.590;11.410;2023-07-16T11:39:37;25.30;99.90
30371;DHT22;17164;48.590;11.410;2023-07-16T11:42:04;25.30;99.90
30371;DHT22;17164;48.590;11.410;2023-07-16T11:44:34;25.40;99.90
30371;DHT22;17164;48.590;11.410;2023-07-16T11:47:00;25.40;99.90
30371;DHT22;17164;48.590;11.410;2023-07-16T11:49:26;25.60;99.90
30371;DHT22;17164;48.590;11.410;2023-07-16T11:51:51;25.70;99.90
30371;DHT22;17164;48.590;11.410;2023-07-16T11:54:17;25.80;99.90
30371;DHT22;17164;48.590;11.410;2023-07-16T11:56:42;26.00;99.90
30371;DHT22;17164;48.590;11.410;2023-07-16T11:59:08;26.20;99.90
30371;DHT22;17164;48.590;11.410;2023-07-16T12:01:34;26.30;99.90
30371;DHT22;17164;48.590;11.410;2023-07-16T12:03:59;26.30;99.90
30371;DHT22;17164;48.590;11.410;2023-07-16T12:06:25;26.30;99.90
30371;DHT22;17164;48.590;11.410;2023-07-16T12:08:50;26.30;99.90
30371;DHT22;17164;48.590;11.410;2023-07-16T12:11:16;26.50;99.90
30371;DHT22;17164;48.590;11.410;2023-07-16T12:13:41;26.50;99.90
30371;DHT22;17164;48.590;11.410;2023-07-16T12:16:07;26.60;99.90
30371;DHT22;17164;48.590;11.410;2023-07-16T12:18:33;26.70;99.90
30371;DHT22;17164;48.590;11.410;2023-07-16T12:20:58;26.70;99.90
30371;DHT22;17164;48.590;11.410;2023-07-16T12:23:24;26.80;99.90
30371;DHT22;17164;48.590;11.410;2023-07-16T12:25:50;26.80;99.90
30371;DHT22;17164;48.590;11.410;2023-07-16T12:28:16;26.70;99.90
30371;DHT22;17164;48.590;11.410;2023-07-16T12:30:41;26.60;99.90
30371;DHT22;17164;48.590;11.410;2023-07-16T12:33:07;26.50;99.90
30371;DHT22;17164;48.590;11.410;2023-07-16T12:35:32;26.60;99.90
30371;DHT22;17164;48.590;11.410;2023-07-16T12:37:58;26.60;99.90
30371;DHT22;17164;48.590;11.410;2023-07-16T12:40:25;26.30;99.90
30371;DHT22;17164;48.590;11.410;2023-07-16T12:42:50;26.20;99.90
30371;DHT22;17164;48.590;11.410;2023-07-16T12:45:16;26.10;99.90
30371;DHT22;17164;48.590;11.410;2023-07-16T12:47:42;25.90;99.90
30371;DHT22;17164;48.590;11.410;2023-07-16T12:50:08;25.70;99.90
30371;DHT22;17164;48.590;11.410;2023-07-16T12:52:33;25.60;99.90
30371;DHT22;17164;48.590;11.410;2023-07-16T12:54:59;25.60;99.90
30371;DHT22;17164;48.590;11.410;2023-07-16T12:57:25;25.90;99.90
30371;DHT22;17164;48.590;11.410;2023-07-16T12:59:50;26.10;99.90
30371;DHT22;17164;48.590;11.410;2023-07-16T13:02:16;26.40;99.90
30371;DHT22;17164;48.590;11.410;2023-07-16T13:04:41;26.70;99.90
30371;DHT22;17164;48.590;11.410;2023-07-16T13:07:07;26.90;99.90
30371;DHT22;17164;48.590;11.410;2023-07-16T13:09:32;27.00;99.90
30371;DHT22;17164;48.590;11.410;2023-07-16T13:11:58;26.90;99.90
30371;DHT22;17164;48.590;11.410;2023-07-16T13:14:23;26.70;99.90
30371;DHT22;17164;48.590;11.410;2023-07-16T13:16:49;26.60;99.90
30371;DHT22;17164;48.590;11.410;2023-07-16T13:19:15;26.50;99.90
30371;DHT22;17164;48.590;11.410;2023-07-16T13:21:40;26.30;99.90
30371;DHT22;17164;48.590;11.410;2023-07-16T13:24:06;26.10;99.90
30371;DHT22;17164;48.590;11.410;2023-07-16T13:26:31;26.00;99.90
30371;DHT22;17164;48.590;11.410;2023-07-16T13:28:57;26.20;99.90
30371;DHT22;17164;48.590;11.410;2023-07-16T13:31:23;26.30;99.90
30371;DHT22;17164;48.590;11.410;2023-07-16T13:33:48;26.40;99.90
30371;DHT22;17164;48.590;11.410;2023-07-16T13:36:14;26.40;99.90
30371;DHT22;17164;48.590;11.410;2023-07-16T13:38:40;26.40;99.90
30371;DHT22;17164;48.590;11.410;2023-07-16T13:41:06;26.30;99.90
30371;DHT22;17164;48.590;11.410;2023-07-16T13:43:31;26.30;99.90
30371;DHT22;17164;48.590;11.410;2023-07-16T13:45:57;26.50;99.90
30371;DHT22;17164;48.590;11.410;2023-07-16T13:48:22;26.60;99.90
30371;DHT22;17164;48.590;11.410;2023-07-16T13:50:48;26.60;99.90
30371;DHT22;17164;48.590;11.410;2023-07-16T13:53:14;26.60;99.90
30371;DHT22;17164;48.590;11.410;2023-07-16T13:55:40;26.60;99.90
30371;DHT22;17164;48.590;11.410;2023-07-16T13:58:06;26.60;99.90
30371;DHT22;17164;48.590;11.410;2023-07-16T14:00:31;26.70;99.90
30371;DHT22;17164;48.590;11.410;2023-07-16T14:02:57;26.80;99.90
30371;DHT22;17164;48.590;11.410;2023-07-16T14:05:22;27.00;99.90
30371;DHT22;17164;48.590;11.410;2023-07-16T14:07:48;27.10;97.90
30371;DHT22;17164;48.590;11.410;2023-07-16T14:10:15;27.10;97.80
30371;DHT22;17164;48.590;11.410;2023-07-16T14:12:40;27.10;98.50
30371;DHT22;17164;48.590;11.410;2023-07-16T14:15:06;26.90;98.20
30371;DHT22;17164;48.590;11.410;2023-07-16T14:17:32;26.80;99.10
30371;DHT22;17164;48.590;11.410;2023-07-16T14:19:57;26.70;99.10
30371;DHT22;17164;48.590;11.410;2023-07-16T14:22:23;26.70;99.40
30371;DHT22;17164;48.590;11.410;2023-07-16T14:24:53;26.70;98.40
30371;DHT22;17164;48.590;11.410;2023-07-16T14:27:18;26.70;98.40
30371;DHT22;17164;48.590;11.410;2023-07-16T14:29:45;26.60;98.40
30371;DHT22;17164;48.590;11.410;2023-07-16T14:32:11;26.60;98.70
30371;DHT22;17164;48.590;11.410;2023-07-16T14:34:37;26.60;99.70
30371;DHT22;17164;48.590;11.410;2023-07-16T14:37:03;26.60;99.70
30371;DHT22;17164;48.590;11.410;2023-07-16T14:39:29;26.60;99.90
30371;DHT22;17164;48.590;11.410;2023-07-16T14:41:55;26.60;99.90
30371;DHT22;17164;48.590;11.410;2023-07-16T14:44:21;26.70;99.40
30371;DHT22;17164;48.590;11.410;2023-07-16T14:46:46;26.80;99.10
30371;DHT22;17164;48.590;11.410;2023-07-16T14:49:12;26.90;99.10
30371;DHT22;17164;48.590;11.410;2023-07-16T14:51:37;27.00;98.90
30371;DHT22;17164;48.590;11.410;2023-07-16T14:54:08;27.10;97.60
30371;DHT22;17164;48.590;11.410;2023-07-16T14:56:34;27.30;98.30
30371;DHT22;17164;48.590;11.410;2023-07-16T14:59:00;27.50;99.10
30371;DHT22;17164;48.590;11.410;2023-07-16T15:01:26;27.70;97.60
30371;DHT22;17164;48.590;11.410;2023-07-16T15:03:51;27.80;97.50
30371;DHT22;17164;48.590;11.410;2023-07-16T15:06:17;28.00;97.20
30371;DHT22;17164;48.590;11.410;2023-07-16T15:08:42;27.90;95.70
30371;DHT22;17164;48.590;11.410;2023-07-16T15:11:08;27.80;95.90
30371;DHT22;17164;48.590;11.410;2023-07-16T15:13:34;27.60;96.60
30371;DHT22;17164;48.590;11.410;2023-07-16T15:15:59;27.50;97.40
30371;DHT22;17164;48.590;11.410;2023-07-16T15:18:25;27.60;96.00